Harvey, ND

9:27 AM CDT on August 19, 2017 (GMT -0500)
Harvey

Weather History for K5H4 - October, 2013

Change the Weather History Date:

Sunday, October 13, 2013

  Actual Average (KRUG) Record (KRUG)
Temperature  
Mean Temperature 40 °F -  
Max Temperature 53 °F 56 °F 85 °F (1958)
Min Temperature 28 °F 33 °F 15 °F (1979)
Degree Days  
Heating Degree Days 24    
Moisture  
Dew Point 33 °F    
Average Humidity 75    
Maximum Humidity 100    
Minimum Humidity 38    
Precipitation  
Precipitation 0.00 in - - ()
Sea Level Pressure  
Sea Level Pressure 30.29 in    
Wind  
Wind Speed 5 mph (SSW)    
Max Wind Speed 8 mph    
Max Gust Speed -    
Visibility 10 miles    
Events      
Averages and records for this station are not official NWS values.
T = Trace of Precipitation, MM = Missing Value Source: NWS Daily Summary

Daily Weather History Graph

Daily Weather History Graph

Search for Another Location

Airport or City:

Trip Planner

Search our weather history database for the weather conditions in past years. The results will help you decide how hot, cold, wet, or windy it might be!

Date:

Astronomy

Oct. 13, 2013 Rise Set
Actual Time 7:56 AM CDT 6:54 PM CDT
Civil Twilight 7:25 AM CDT 7:25 PM CDT
Nautical Twilight 6:49 AM CDT 8:01 PM CDT
Astronomical Twilight 6:13 AM CDT 8:37 PM CDT
Moon 4:07 PM CDT (10/13) 1:44 AM CDT (10/13)
Length of Visible Light 12h 00m
Length of Day
10h 58m
Waxing Gibbous, 69% of the Moon is Illuminated
Oct 13
Waxing Gibbous
Oct 18
Full
Oct 26
Last Quarter
Nov 3
New
Nov 9
First Quarter

Hourly Weather History & Observations

Time (CDT) Temp. Windchill Dew Point Humidity Pressure Visibility Wind Dir Wind Speed Gust Speed Precip Events Conditions
12:15 AM 32.0 °F 26.4 °F 32.0 °F 100% 30.18 in 10.0 mi WSW 5.8 mph - N/A   Clear
12:35 AM 33.8 °F 27.7 °F 32.0 °F 93% 30.19 in 10.0 mi WSW 6.9 mph - N/A   Clear
12:55 AM 32.0 °F 26.4 °F 32.0 °F 100% 30.20 in 10.0 mi WSW 5.8 mph - N/A   Clear
1:15 AM 32.0 °F 25.6 °F 32.0 °F 100% 30.21 in 10.0 mi SW 6.9 mph - N/A   Clear
1:35 AM 32.0 °F 24.8 °F 32.0 °F 100% 30.22 in 10.0 mi SW 8.1 mph - N/A   Clear
1:55 AM 32.0 °F 24.8 °F 32.0 °F 100% 30.22 in 10.0 mi SW 8.1 mph - N/A   Clear
2:15 AM 32.0 °F 24.8 °F 32.0 °F 100% 30.23 in 10.0 mi SW 8.1 mph - N/A   Clear
2:35 AM 32.0 °F 24.8 °F 32.0 °F 100% 30.24 in 10.0 mi WSW 8.1 mph - N/A   Clear
2:55 AM 32.0 °F 24.8 °F 32.0 °F 100% 30.24 in 10.0 mi WSW 8.1 mph - N/A   Clear
3:15 AM 32.0 °F 25.6 °F 32.0 °F 100% 30.25 in 10.0 mi WSW 6.9 mph - N/A   Clear
3:35 AM 32.0 °F 25.6 °F 32.0 °F 100% 30.25 in 10.0 mi WSW 6.9 mph - N/A   Clear
3:55 AM 32.0 °F 25.6 °F 32.0 °F 100% 30.25 in 10.0 mi WSW 6.9 mph - N/A   Clear
4:15 AM 32.0 °F 25.6 °F 32.0 °F 100% 30.25 in 10.0 mi WSW 6.9 mph - N/A   Clear
4:35 AM 32.0 °F 28.7 °F 32.0 °F 100% 30.26 in 10.0 mi WSW 3.5 mph - N/A   Clear
4:55 AM 32.0 °F 26.4 °F 32.0 °F 100% 30.26 in 10.0 mi WSW 5.8 mph - N/A   Clear
5:15 AM 32.0 °F 24.8 °F 32.0 °F 100% 30.27 in 10.0 mi WSW 8.1 mph - N/A   Clear
5:35 AM 32.0 °F 25.6 °F 32.0 °F 100% 30.27 in 10.0 mi WSW 6.9 mph - N/A   Clear
5:55 AM 30.2 °F 23.4 °F 30.2 °F 100% 30.28 in 10.0 mi WSW 6.9 mph - N/A   Clear
6:15 AM 32.0 °F 25.6 °F 32.0 °F 100% 30.28 in 10.0 mi WSW 6.9 mph - N/A   Clear
6:35 AM 28.4 °F 21.2 °F 28.4 °F 100% 30.29 in 10.0 mi WSW 6.9 mph - N/A   Clear
6:55 AM 28.4 °F 21.2 °F 28.4 °F 100% 30.29 in 10.0 mi WSW 6.9 mph - N/A   Clear
7:15 AM 28.4 °F 21.2 °F 28.4 °F 100% 30.30 in 10.0 mi WSW 6.9 mph - N/A   Clear
7:35 AM 30.2 °F 23.4 °F 30.2 °F 100% 30.31 in 10.0 mi WSW 6.9 mph - N/A   Clear
7:55 AM 28.4 °F 21.2 °F 28.4 °F 100% 30.31 in 10.0 mi WSW 6.9 mph - N/A   Clear
8:15 AM 28.4 °F 22.2 °F 28.4 °F 100% 30.31 in 10.0 mi WSW 5.8 mph - N/A   Clear
8:35 AM 30.2 °F 25.4 °F 30.2 °F 100% 30.32 in 10.0 mi WSW 4.6 mph - N/A   Clear
8:55 AM 32.0 °F 28.7 °F 32.0 °F 100% 30.32 in 10.0 mi West 3.5 mph - N/A   Clear
9:15 AM 35.6 °F - 32.0 °F 87% 30.33 in 10.0 mi Calm Calm - N/A   Clear
9:35 AM 37.4 °F - 33.8 °F 87% 30.33 in 10.0 mi Calm Calm - N/A   Clear
9:55 AM 41.0 °F 38.0 °F 35.6 °F 81% 30.33 in 10.0 mi SW 4.6 mph - N/A   Clear
10:15 AM 41.0 °F - 35.6 °F 81% 30.34 in 10.0 mi Calm Calm - N/A   Clear
10:55 AM 44.6 °F - 35.6 °F 71% 30.35 in 10.0 mi Calm Calm - N/A   Clear
11:15 AM 46.4 °F - 33.8 °F 62% 30.35 in 10.0 mi Calm Calm - N/A   Clear
11:35 AM 48.2 °F - 32.0 °F 54% 30.35 in 10.0 mi Calm Calm - N/A   Clear
11:55 AM 48.2 °F - 32.0 °F 54% 30.35 in 10.0 mi West 3.5 mph - N/A   Clear
12:15 PM 50.0 °F - 32.0 °F 50% 30.35 in 10.0 mi Calm Calm - N/A   Clear
12:35 PM 50.0 °F - 32.0 °F 50% 30.34 in 10.0 mi Calm Calm - N/A   Clear
12:55 PM 50.0 °F - 30.2 °F 47% 30.34 in 10.0 mi Calm Calm - N/A   Clear
1:15 PM 51.8 °F - 28.4 °F 41% 30.34 in 10.0 mi Calm Calm - N/A   Clear
1:35 PM 51.8 °F - 28.4 °F 41% 30.34 in 10.0 mi SW 4.6 mph - N/A   Clear
1:55 PM 53.6 °F - 30.2 °F 41% 30.33 in 10.0 mi South 3.5 mph - N/A   Clear
2:15 PM 53.6 °F - 28.4 °F 38% 30.32 in 10.0 mi Calm Calm - N/A   Clear
2:35 PM 53.6 °F - 32.0 °F 44% 30.32 in 1.2 mi West 5.8 mph - N/A   Haze
2:55 PM 53.6 °F - 28.4 °F 38% 30.31 in 10.0 mi ESE 3.5 mph - N/A   Clear
3:15 PM 53.6 °F - 32.0 °F 44% 30.30 in 10.0 mi ESE 4.6 mph - N/A   Clear
3:35 PM 53.6 °F - 28.4 °F 38% 30.30 in 10.0 mi Calm Calm - N/A   Clear
3:55 PM 53.6 °F - 32.0 °F 44% 30.29 in 10.0 mi North 4.6 mph - N/A   Clear
4:15 PM 53.6 °F - 28.4 °F 38% 30.29 in 8.0 mi ESE 3.5 mph - N/A   Clear
4:35 PM 53.6 °F - 30.2 °F 41% 30.29 in 10.0 mi ESE 3.5 mph - N/A   Clear
4:55 PM 53.6 °F - 32.0 °F 44% 30.28 in 10.0 mi East 8.1 mph - N/A   Clear
5:15 PM 53.6 °F - 32.0 °F 44% 30.28 in 10.0 mi East 6.9 mph - N/A   Clear
5:35 PM 53.6 °F - 32.0 °F 44% 30.27 in 10.0 mi East 6.9 mph - N/A   Clear
5:55 PM 51.8 °F - 33.8 °F 50% 30.27 in 10.0 mi East 6.9 mph - N/A   Clear
6:15 PM 50.0 °F - 35.6 °F 58% 30.27 in 10.0 mi East 8.1 mph - N/A   Clear
6:35 PM 48.2 °F - 35.6 °F 62% 30.27 in 10.0 mi East 6.9 mph - N/A   Clear
6:55 PM 46.4 °F 43.5 °F 35.6 °F 66% 30.27 in 10.0 mi ENE 5.8 mph - N/A   Clear
7:15 PM 44.6 °F 42.2 °F 35.6 °F 71% 30.28 in 10.0 mi ENE 4.6 mph - N/A   Clear
7:35 PM 44.6 °F 41.4 °F 32.0 °F 61% 30.29 in 10.0 mi East 5.8 mph - N/A   Clear
7:55 PM 44.6 °F 41.4 °F 32.0 °F 61% 30.29 in 10.0 mi East 5.8 mph - N/A   Clear
8:15 PM 44.6 °F 42.2 °F 32.0 °F 61% 30.30 in 10.0 mi South 4.6 mph - N/A   Scattered Clouds
8:35 PM 46.4 °F 44.3 °F 32.0 °F 57% 30.31 in 5.0 mi SE 4.6 mph - N/A   Haze
8:55 PM 41.0 °F 38.0 °F 35.6 °F 81% 30.31 in 10.0 mi ESE 4.6 mph - N/A   Mostly Cloudy
9:15 PM 42.8 °F 40.1 °F 37.4 °F 81% 30.32 in 10.0 mi SE 4.6 mph - N/A   Partly Cloudy
9:35 PM 42.8 °F 40.1 °F 37.4 °F 81% 30.32 in 7.0 mi SSE 4.6 mph - N/A   Scattered Clouds
9:55 PM 44.6 °F 43.1 °F 37.4 °F 76% 30.32 in 8.0 mi SE 3.5 mph - N/A   Mostly Cloudy
10:15 PM 44.6 °F 42.2 °F 39.2 °F 81% 30.32 in 10.0 mi ESE 4.6 mph - N/A   Overcast
10:35 PM 44.6 °F 42.2 °F 37.4 °F 76% 30.32 in 10.0 mi SSE 4.6 mph - N/A   Overcast
10:55 PM 46.4 °F 42.9 °F 37.4 °F 71% 30.32 in 10.0 mi SSE 6.9 mph - N/A   Scattered Clouds
11:15 PM 44.6 °F 40.7 °F 39.2 °F 81% 30.31 in 9.0 mi SE 6.9 mph - N/A   Mostly Cloudy
11:35 PM 44.6 °F 42.2 °F 41.0 °F 87% 30.32 in 6.0 mi SE 4.6 mph - N/A   Overcast
11:55 PM 42.8 °F 38.6 °F 41.0 °F 93% 30.31 in 6.0 mi East 6.9 mph - N/A   Overcast